Meteoalarm Info


My Other Sites:

Weather34 Aurora MKIIsikeawx.alinos.eu

SYKIA METEOTEMPLATEsykiameteo.alinos.eu

alinos.eualinos.eu



Nearby METAR Reports

   
LGEL - Elefsis (hel-Afb, Greece
Distance from station: E 77 km
Updated: 29-02-2024 12:50
Partly Cloudy  
Partly Cloudy  
   Wind: SE 14.8 km/h
Wind: SE 14.8 km/h
Temperature: 19°C
Dew Point: 11°C
Humidity: 60%
Barometer: 1018 hPa
Clouds: Partly Cloudy
Visibility: More than 10 km
Cloud details: Partly Cloudy 2500 ft
LGEL 291050Z 13008KT 9999 SCT025 19/11 Q1018
LGRX - Araxos (civ/Afb), Greece
Distance from station: W 110 km
Updated: 29-02-2024 12:50
Mostly Cloudy  
Mostly Cloudy  
   Wind: NNE 22.2 km/h
Wind: NNE 22.2 km/h
Temperature: 19°C
Dew Point: 12°C
Humidity: 64%
Barometer: 1013 hPa
Clouds: Mostly Cloudy
Visibility: More than 10 km
Cloud details: Few Clouds 2500 ft,
Mostly Cloudy 9000 ft
LGRX 291050Z 03012KT 9999 FEW025 BKN090 19/12 Q1013
LGAV - Athens/Elef-Ven, Greece
Distance from station: E 113 km
Updated: 29-02-2024 12:50
Partly Cloudy  
Partly Cloudy  
   Wind: ESE 22.2 km/h
Wind: ESE 22.2 km/h
Temperature: 17°C
Dew Point: 11°C
Humidity: 68%
Barometer: 1019 hPa
Clouds: Partly Cloudy
Visibility: More than 10 km
Cloud details: Few Clouds 1800 ft,
Partly Cloudy 7000 ft
LGAV 291050Z 11012KT 9999 FEW018 SCT070 17/11 Q1019 NOSIG
LGAD - Andravida (civ/A, Greece
Distance from station: W 124 km
Updated: 29-02-2024 12:50
Few Clouds  
Few Clouds  
   Wind: SE 18.5 km/h
Wind: SE 18.5 km/h
Temperature: 22°C
Dew Point: 10°C
Humidity: 47%
Barometer: 1013 hPa
Clouds: Few Clouds
Visibility: More than 10 km
Cloud details: Few Clouds 2500 ft
LGAD 291050Z 14010KT 9999 FEW025 22/10 Q1013
LGKL - Kalamata (hel-Af, Greece
Distance from station: SSW 124 km
Updated: 29-02-2024 12:50
Partly Cloudy  
Partly Cloudy  
   Wind: West 9.3 km/h
Wind: West 9.3 km/h
Temperature: 20°C
Dew Point: 11°C
Humidity: 56%
Barometer: 1013 hPa
Clouds: Partly Cloudy
Visibility: More than 10 km
Cloud details: Few Clouds 2500 ft,
Partly Cloudy 8000 ft
LGKL 291050Z 26005KT 9999 FEW025 SCT080 20/11 Q1013
LGBL - Nea Anchialos, Greece
Distance from station: N 129 km
Updated: 29-02-2024 12:50
Partly Cloudy  
Partly Cloudy  
   Wind: East 25.9 km/h
Wind: East 25.9 km/h
Temperature: 18°C
Dew Point: 14°C
Humidity: 78%
Barometer: 1018 hPa
Clouds: Partly Cloudy
Visibility: More than 10 km
Cloud details: Few Clouds 2000 ft,
Partly Cloudy 3000 ft
LGBL 291050Z 10014KT 9999 FEW020 SCT030 18/14 Q1018

Script developed by  Saratoga-weather.org Adapted for the template by  Weerstation Leuven

You find our weather info also at:

European Weather Network

Weather Underground

AWEKAS

Citizen Weather Observer Program (CWOP)

UK Metoffice

Equipment we use:

Weather-station
Davis Wireless Vantage Pro2

Davis Wireless Vantage Pro2